Time;durP1;ratioP1;P1;durP2;ratioP2;P2;SDS_P1;SDS_P2;PMS_P1;PMS_P2;Temp;Humidity;BMP_temperature;BMP_pressure;BME280_temperature;BME280_humidity;BME280_pressure;Samples;Min_cycle;Max_cycle;Signal;HPM_P1;HPM_P2
2023/05/26 00:01:34;;;;;;;;;;;13.70;99.90;;;;;;4951411;29;19931;-67
2023/05/26 00:04:02;;;;;;;;;;;13.60;99.90;;;;;;4980226;23;19965;-63
2023/05/26 00:06:34;;;;;;;;;;;13.60;99.90;;;;;;4985743;28;19933;-63
2023/05/26 00:09:06;;;;;;;;;;;13.60;99.90;;;;;;4986723;28;19948;-63
2023/05/26 00:11:33;;;;;;;;;;;13.60;99.90;;;;;;4976345;28;19930;-63
2023/05/26 00:14:05;;;;;;;;;;;13.60;99.90;;;;;;4959945;28;20385;-63
2023/05/26 00:16:37;;;;;;;;;;;13.50;99.90;;;;;;4980818;28;20428;-63
2023/05/26 00:19:07;;;;;;;;;;;13.50;99.90;;;;;;4984693;28;19961;-63
2023/05/26 00:21:39;;;;;;;;;;;13.40;99.90;;;;;;4985087;28;19925;-63
2023/05/26 00:24:11;;;;;;;;;;;13.40;99.90;;;;;;4984904;28;19926;-63
2023/05/26 00:26:38;;;;;;;;;;;13.30;99.90;;;;;;4986581;28;19961;-63
2023/05/26 00:29:10;;;;;;;;;;;13.30;99.90;;;;;;4984975;28;19925;-63
2023/05/26 00:31:42;;;;;;;;;;;13.30;99.90;;;;;;4963198;28;19934;-63
2023/05/26 00:34:13;;;;;;;;;;;13.20;99.90;;;;;;4955486;28;19926;-63
2023/05/26 00:36:46;;;;;;;;;;;13.20;99.90;;;;;;4962184;28;19930;-63
2023/05/26 00:39:18;;;;;;;;;;;13.20;99.90;;;;;;4977400;28;19930;-63
2023/05/26 00:41:50;;;;;;;;;;;13.20;99.90;;;;;;4976797;28;19961;-63
2023/05/26 00:44:16;;;;;;;;;;;13.20;99.90;;;;;;4963222;28;19992;-63
2023/05/26 00:46:48;;;;;;;;;;;13.10;99.90;;;;;;4982121;28;19932;-63
2023/05/26 00:49:20;;;;;;;;;;;13.10;99.90;;;;;;4984531;28;19941;-63
2023/05/26 00:51:47;;;;;;;;;;;13.00;99.90;;;;;;4983569;28;19932;-63
2023/05/26 00:54:14;;;;;;;;;;;13.00;99.90;;;;;;4970578;28;20041;-62
2023/05/26 00:56:47;;;;;;;;;;;13.00;99.90;;;;;;4969052;28;19941;-63
2023/05/26 00:59:18;;;;;;;;;;;13.00;99.90;;;;;;4976017;28;19930;-63
2023/05/26 01:01:51;;;;;;;;;;;13.00;99.90;;;;;;4965360;28;19930;-63
2023/05/26 01:04:17;;;;;;;;;;;13.00;99.90;;;;;;4957782;28;20473;-63
2023/05/26 01:06:50;;;;;;;;;;;13.00;99.90;;;;;;4960350;28;20310;-63
2023/05/26 01:09:22;;;;;;;;;;;12.90;99.90;;;;;;4969054;28;19933;-63
2023/05/26 01:11:56;;;;;;;;;;;12.80;99.90;;;;;;4965138;28;19929;-63
2023/05/26 01:14:33;;;;;;;;;;;12.80;99.90;;;;;;4964319;28;19933;-61
2023/05/26 01:17:12;;;;;;;;;;;12.70;99.90;;;;;;4966208;28;19942;-63
2023/05/26 01:20:00;;;;;;;;;;;12.70;99.90;;;;;;4966107;28;20317;-63
2023/05/26 01:22:50;;;;;;;;;;;12.70;99.90;;;;;;4982873;28;19930;-63
2023/05/26 01:25:26;;;;;;;;;;;12.70;99.90;;;;;;4963659;28;19930;-63
2023/05/26 01:28:03;;;;;;;;;;;12.60;99.90;;;;;;4983629;28;19980;-63
2023/05/26 01:30:35;;;;;;;;;;;12.60;99.90;;;;;;4976546;28;20313;-63
2023/05/26 01:33:07;;;;;;;;;;;12.60;99.90;;;;;;4967163;28;20389;-63
2023/05/26 01:35:34;;;;;;;;;;;12.50;99.90;;;;;;4966943;28;19934;-63
2023/05/26 01:38:02;;;;;;;;;;;12.50;99.90;;;;;;4982314;28;19926;-63
2023/05/26 01:40:30;;;;;;;;;;;12.40;99.90;;;;;;4966414;28;19964;-63
2023/05/26 01:42:59;;;;;;;;;;;12.30;99.90;;;;;;4967943;28;20453;-63
2023/05/26 01:45:43;;;;;;;;;;;12.20;99.90;;;;;;4968751;28;19926;-63
2023/05/26 01:48:11;;;;;;;;;;;12.30;99.90;;;;;;4963599;28;19926;-63
2023/05/26 01:50:45;;;;;;;;;;;12.20;99.90;;;;;;4969238;28;20020;-63
2023/05/26 01:53:18;;;;;;;;;;;12.20;99.90;;;;;;4963744;28;20402;-63
2023/05/26 01:55:51;;;;;;;;;;;12.20;99.90;;;;;;4956657;28;19929;-63
2023/05/26 01:58:25;;;;;;;;;;;12.20;99.90;;;;;;4961102;28;19930;-63
2023/05/26 02:00:58;;;;;;;;;;;12.10;99.90;;;;;;4966788;28;19930;-61
2023/05/26 02:03:25;;;;;;;;;;;12.10;99.90;;;;;;4964373;28;20012;-63
2023/05/26 02:05:57;;;;;;;;;;;12.10;99.90;;;;;;4979083;28;19946;-63
2023/05/26 02:08:29;;;;;;;;;;;12.00;99.90;;;;;;4953808;28;19981;-63
2023/05/26 02:11:00;;;;;;;;;;;12.00;99.90;;;;;;4951767;28;20389;-63
2023/05/26 02:13:32;;;;;;;;;;;12.00;99.90;;;;;;4963057;28;19948;-63
2023/05/26 02:16:04;;;;;;;;;;;12.00;99.90;;;;;;4948028;28;20526;-63
2023/05/26 02:18:36;;;;;;;;;;;12.00;99.90;;;;;;4968948;28;19934;-63
2023/05/26 02:21:08;;;;;;;;;;;12.00;99.90;;;;;;4966172;28;19930;-63
2023/05/26 02:23:36;;;;;;;;;;;11.90;99.90;;;;;;4961578;28;20504;-63
2023/05/26 02:26:07;;;;;;;;;;;11.90;99.90;;;;;;4951427;28;19941;-62
2023/05/26 02:28:40;;;;;;;;;;;11.80;99.90;;;;;;4955137;28;19926;-63
2023/05/26 02:31:06;;;;;;;;;;;11.70;99.90;;;;;;4963137;28;19925;-63
2023/05/26 02:33:40;;;;;;;;;;;11.70;99.90;;;;;;4966802;28;20409;-62
2023/05/26 02:36:13;;;;;;;;;;;11.60;99.90;;;;;;4961989;28;19937;-63
2023/05/26 02:38:45;;;;;;;;;;;11.60;99.90;;;;;;4964977;28;19936;-63
2023/05/26 02:41:17;;;;;;;;;;;11.60;99.90;;;;;;4963246;28;19926;-63
2023/05/26 02:43:45;;;;;;;;;;;11.60;99.90;;;;;;4958826;28;19930;-62
2023/05/26 02:46:22;;;;;;;;;;;11.60;99.90;;;;;;4968078;28;19926;-63
2023/05/26 02:48:50;;;;;;;;;;;11.60;99.90;;;;;;4978970;28;19945;-63
2023/05/26 02:51:22;;;;;;;;;;;11.60;99.90;;;;;;4954092;28;20404;-65
2023/05/26 02:53:49;;;;;;;;;;;11.60;99.90;;;;;;4966024;28;20158;-65
2023/05/26 02:56:21;;;;;;;;;;;11.50;99.90;;;;;;4954324;28;19925;-65
2023/05/26 02:58:48;;;;;;;;;;;11.50;99.90;;;;;;4962831;28;19965;-65
2023/05/26 03:01:21;;;;;;;;;;;11.50;99.90;;;;;;4968065;28;19930;-64
2023/05/26 03:03:53;;;;;;;;;;;11.50;99.90;;;;;;4959423;28;19926;-66
2023/05/26 03:06:25;;;;;;;;;;;11.50;99.90;;;;;;4964254;28;19977;-65
2023/05/26 03:08:52;;;;;;;;;;;11.50;99.90;;;;;;4962274;28;20045;-63
2023/05/26 03:11:25;;;;;;;;;;;11.40;99.90;;;;;;4964957;28;20078;-63
2023/05/26 03:13:56;;;;;;;;;;;11.40;99.90;;;;;;4966433;28;19937;-63
2023/05/26 03:16:24;;;;;;;;;;;11.40;99.90;;;;;;4981418;28;20036;-63
2023/05/26 03:18:58;;;;;;;;;;;11.30;99.90;;;;;;4977662;28;19930;-62
2023/05/26 03:21:31;;;;;;;;;;;11.30;99.90;;;;;;4968880;28;19926;-63
2023/05/26 03:24:04;;;;;;;;;;;11.30;99.90;;;;;;4966227;28;20412;-63
2023/05/26 03:26:35;;;;;;;;;;;11.20;99.90;;;;;;4968639;28;20306;-63
2023/05/26 03:29:07;;;;;;;;;;;11.20;99.90;;;;;;4968523;28;20492;-63
2023/05/26 03:31:39;;;;;;;;;;;11.20;99.90;;;;;;4963000;28;19926;-63
2023/05/26 03:34:11;;;;;;;;;;;11.20;99.90;;;;;;4972562;28;19945;-63
2023/05/26 03:36:45;;;;;;;;;;;11.20;99.90;;;;;;4967631;28;19926;-63
2023/05/26 03:39:24;;;;;;;;;;;11.20;99.90;;;;;;4965864;28;20553;-63
2023/05/26 03:41:58;;;;;;;;;;;11.10;99.90;;;;;;4968853;28;19930;-63
2023/05/26 03:44:26;;;;;;;;;;;11.10;99.90;;;;;;4966560;28;19925;-63
2023/05/26 03:46:58;;;;;;;;;;;11.10;99.90;;;;;;4950926;28;19980;-63
2023/05/26 03:49:30;;;;;;;;;;;11.10;99.90;;;;;;4969534;28;19937;-63
2023/05/26 03:52:02;;;;;;;;;;;11.10;99.90;;;;;;4979765;28;19949;-63
2023/05/26 03:54:30;;;;;;;;;;;11.10;99.90;;;;;;4962368;28;19933;-63
2023/05/26 03:57:03;;;;;;;;;;;11.10;99.90;;;;;;4957028;28;19926;-63
2023/05/26 03:59:30;;;;;;;;;;;11.20;99.90;;;;;;4963594;28;19984;-63
2023/05/26 04:02:03;;;;;;;;;;;11.10;99.90;;;;;;4983119;28;19938;-63
2023/05/26 04:04:34;;;;;;;;;;;11.20;99.90;;;;;;4970165;28;20017;-63
2023/05/26 04:07:06;;;;;;;;;;;11.20;99.90;;;;;;4953280;28;19949;-64
2023/05/26 04:09:38;;;;;;;;;;;11.20;99.90;;;;;;4967500;28;19926;-64
2023/05/26 04:12:10;;;;;;;;;;;11.20;99.90;;;;;;4967725;28;19930;-64
2023/05/26 04:14:37;;;;;;;;;;;11.20;99.90;;;;;;4969627;28;19973;-63
2023/05/26 04:17:04;;;;;;;;;;;11.20;99.90;;;;;;4966120;28;19925;-63
2023/05/26 04:19:37;;;;;;;;;;;11.20;99.90;;;;;;4982104;28;19933;-63
2023/05/26 04:22:08;;;;;;;;;;;11.20;99.90;;;;;;4964896;28;20303;-63
2023/05/26 04:24:35;;;;;;;;;;;11.20;99.90;;;;;;4953234;28;20394;-63
2023/05/26 04:27:07;;;;;;;;;;;11.20;99.90;;;;;;4963546;28;20511;-64
2023/05/26 04:29:58;;;;;;;;;;;11.30;99.90;;;;;;4965836;28;19992;-63
2023/05/26 04:32:42;;;;;;;;;;;11.30;99.90;;;;;;4968313;28;20021;-62
2023/05/26 04:35:26;;;;;;;;;;;11.40;99.90;;;;;;4957786;28;20301;-63
2023/05/26 04:37:58;;;;;;;;;;;11.40;99.90;;;;;;4956056;28;19949;-68
2023/05/26 04:40:32;;;;;;;;;;;11.40;99.90;;;;;;4966187;28;19969;-65
2023/05/26 04:43:04;;;;;;;;;;;11.40;99.90;;;;;;4966649;28;20339;-65
2023/05/26 04:45:37;;;;;;;;;;;11.50;99.90;;;;;;4945530;28;20449;-65
2023/05/26 04:48:09;;;;;;;;;;;11.50;99.90;;;;;;4955673;28;19925;-65
2023/05/26 04:50:41;;;;;;;;;;;11.50;99.90;;;;;;4966810;28;19937;-65
2023/05/26 04:53:08;;;;;;;;;;;11.60;99.90;;;;;;4966544;28;19936;-65
2023/05/26 04:55:40;;;;;;;;;;;11.60;99.90;;;;;;4952732;28;19956;-65
2023/05/26 04:58:12;;;;;;;;;;;11.70;99.90;;;;;;4963761;28;19934;-65
2023/05/26 05:00:44;;;;;;;;;;;11.70;99.90;;;;;;4968694;28;19964;-65
2023/05/26 05:03:37;;;;;;;;;;;11.70;99.90;;;;;;4965372;28;19930;-65
2023/05/26 05:06:15;;;;;;;;;;;11.80;99.90;;;;;;4964900;28;19934;-65
2023/05/26 05:08:47;;;;;;;;;;;11.80;99.90;;;;;;4964777;28;19932;-65
2023/05/26 05:11:19;;;;;;;;;;;11.90;99.90;;;;;;4964920;28;19930;-65
2023/05/26 05:13:52;;;;;;;;;;;11.90;99.90;;;;;;4964544;28;19940;-65
2023/05/26 05:16:25;;;;;;;;;;;12.00;99.90;;;;;;4977913;28;19927;-65
2023/05/26 05:18:56;;;;;;;;;;;12.00;99.90;;;;;;4962249;28;20681;-65
2023/05/26 05:21:30;;;;;;;;;;;12.10;99.90;;;;;;4947857;28;20024;-65
2023/05/26 05:23:57;;;;;;;;;;;12.10;99.90;;;;;;4965000;28;19973;-65
2023/05/26 05:26:24;;;;;;;;;;;12.20;99.90;;;;;;4964894;28;19934;-64
2023/05/26 05:28:56;;;;;;;;;;;12.20;99.90;;;;;;4967935;28;19936;-65
2023/05/26 05:31:38;;;;;;;;;;;12.30;99.90;;;;;;4963739;28;19934;-64
2023/05/26 05:34:10;;;;;;;;;;;12.30;99.90;;;;;;4953841;28;19937;-65
2023/05/26 05:36:37;;;;;;;;;;;12.30;99.90;;;;;;4961732;28;20345;-65
2023/05/26 05:39:09;;;;;;;;;;;12.40;99.90;;;;;;4955315;28;20418;-65
2023/05/26 05:41:41;;;;;;;;;;;12.40;99.90;;;;;;4952555;28;20441;-64
2023/05/26 05:44:13;;;;;;;;;;;12.40;99.90;;;;;;4959497;28;19930;-65
2023/05/26 05:46:46;;;;;;;;;;;12.40;99.90;;;;;;4980606;28;20266;-64
2023/05/26 05:49:26;;;;;;;;;;;12.50;99.90;;;;;;4962953;28;19934;-65
2023/05/26 05:51:57;;;;;;;;;;;12.50;99.90;;;;;;4969612;28;19930;-65
2023/05/26 05:54:29;;;;;;;;;;;12.50;99.90;;;;;;4962222;28;19988;-65
2023/05/26 05:57:01;;;;;;;;;;;12.50;99.90;;;;;;4952583;28;20298;-65
2023/05/26 05:59:28;;;;;;;;;;;12.60;99.90;;;;;;4965511;28;20179;-66
2023/05/26 06:02:00;;;;;;;;;;;12.60;99.90;;;;;;4962392;28;20024;-65
2023/05/26 06:04:32;;;;;;;;;;;12.60;99.90;;;;;;4966056;28;19958;-65
2023/05/26 06:07:04;;;;;;;;;;;12.70;99.90;;;;;;4967249;28;19929;-65
2023/05/26 06:09:30;;;;;;;;;;;12.70;99.90;;;;;;4962832;28;19973;-65
2023/05/26 06:11:57;;;;;;;;;;;12.80;99.90;;;;;;4967705;28;19984;-65
2023/05/26 06:14:30;;;;;;;;;;;12.90;99.90;;;;;;4952980;28;19926;-65
2023/05/26 06:16:57;;;;;;;;;;;13.00;99.90;;;;;;4967615;28;19930;-65
2023/05/26 06:19:28;;;;;;;;;;;13.00;99.90;;;;;;4965383;28;20329;-65
2023/05/26 06:22:03;;;;;;;;;;;13.10;99.90;;;;;;4961655;28;19981;-65
2023/05/26 06:24:35;;;;;;;;;;;13.10;99.90;;;;;;4977500;28;19926;-65
2023/05/26 06:27:01;;;;;;;;;;;13.20;99.90;;;;;;4957447;28;19934;-65
2023/05/26 06:29:36;;;;;;;;;;;13.20;99.90;;;;;;4957690;28;20021;-65
2023/05/26 06:32:08;;;;;;;;;;;13.30;99.90;;;;;;4994527;23;19926;-68
2023/05/26 06:34:35;;;;;;;;;;;13.40;99.90;;;;;;4984709;28;19926;-66
2023/05/26 06:37:07;;;;;;;;;;;13.50;99.90;;;;;;4968487;28;19932;-66
2023/05/26 06:39:39;;;;;;;;;;;13.50;99.90;;;;;;4985437;28;19932;-66
2023/05/26 06:42:17;;;;;;;;;;;13.50;99.90;;;;;;4972764;28;19932;-66
2023/05/26 06:44:49;;;;;;;;;;;13.60;99.90;;;;;;4981482;28;19930;-67
2023/05/26 06:47:23;;;;;;;;;;;13.70;99.90;;;;;;4963560;28;20424;-67
2023/05/26 06:50:08;;;;;;;;;;;13.80;99.90;;;;;;4957897;28;19930;-66
2023/05/26 06:52:42;;;;;;;;;;;13.80;99.90;;;;;;4978731;28;19942;-67
2023/05/26 06:55:16;;;;;;;;;;;13.90;99.90;;;;;;4979518;28;20011;-66
2023/05/26 06:57:48;;;;;;;;;;;14.10;99.90;;;;;;4968416;28;19932;-68
2023/05/26 07:00:17;;;;;;;;;;;14.20;99.90;;;;;;4964931;28;20390;-66
2023/05/26 07:02:44;;;;;;;;;;;14.30;99.90;;;;;;4983403;28;19933;-66
2023/05/26 07:05:25;;;;;;;;;;;14.40;99.90;;;;;;4967799;28;19930;-68
2023/05/26 07:07:57;;;;;;;;;;;14.60;99.90;;;;;;4980853;28;20488;-67
2023/05/26 07:10:24;;;;;;;;;;;14.70;99.90;;;;;;4980553;28;19948;-67
2023/05/26 07:12:50;;;;;;;;;;;14.70;99.90;;;;;;4958266;28;19937;-67
2023/05/26 07:15:25;;;;;;;;;;;14.80;99.90;;;;;;4963703;28;19926;-67
2023/05/26 07:17:57;;;;;;;;;;;14.80;99.90;;;;;;4961994;28;20021;-67
2023/05/26 07:20:29;;;;;;;;;;;14.90;99.90;;;;;;4973529;28;19926;-66
2023/05/26 07:22:56;;;;;;;;;;;15.00;99.90;;;;;;4983752;28;19926;-66
2023/05/26 07:25:28;;;;;;;;;;;15.10;99.90;;;;;;4970741;28;20287;-66
2023/05/26 07:27:59;;;;;;;;;;;15.10;99.90;;;;;;4971279;28;20402;-67
2023/05/26 07:30:33;;;;;;;;;;;15.20;99.90;;;;;;4983988;28;20301;-66
2023/05/26 07:33:06;;;;;;;;;;;15.30;99.90;;;;;;4969045;28;19972;-68
2023/05/26 07:35:38;;;;;;;;;;;15.40;99.90;;;;;;4967638;28;19962;-66
2023/05/26 07:38:11;;;;;;;;;;;15.50;99.90;;;;;;4977011;28;19932;-66
2023/05/26 07:40:43;;;;;;;;;;;15.60;99.90;;;;;;4990317;28;19933;-68
2023/05/26 07:43:11;;;;;;;;;;;15.60;99.90;;;;;;4991015;28;19934;-66
2023/05/26 07:45:43;;;;;;;;;;;15.80;99.90;;;;;;4988564;28;19926;-67
2023/05/26 07:48:17;;;;;;;;;;;15.90;99.90;;;;;;4975783;28;20261;-66
2023/05/26 07:50:48;;;;;;;;;;;16.00;99.90;;;;;;4988716;28;19926;-67
2023/05/26 07:53:20;;;;;;;;;;;16.10;99.90;;;;;;4988770;28;20020;-66
2023/05/26 07:55:52;;;;;;;;;;;16.20;99.90;;;;;;4989365;28;19932;-67
2023/05/26 07:58:24;;;;;;;;;;;16.30;99.90;;;;;;4974677;28;20004;-66
2023/05/26 08:00:56;;;;;;;;;;;16.40;99.90;;;;;;4989686;28;19930;-66
2023/05/26 08:03:28;;;;;;;;;;;16.50;99.90;;;;;;4989862;28;19930;-68
2023/05/26 08:06:00;;;;;;;;;;;16.60;99.90;;;;;;4985843;28;19961;-68
2023/05/26 08:08:31;;;;;;;;;;;16.70;99.90;;;;;;4974159;28;19941;-68
2023/05/26 08:10:58;;;;;;;;;;;16.90;99.90;;;;;;4974424;28;20017;-66
2023/05/26 08:13:30;;;;;;;;;;;16.90;99.90;;;;;;4975380;28;19969;-68
2023/05/26 08:16:02;;;;;;;;;;;17.00;99.90;;;;;;4988899;28;20669;-68
2023/05/26 08:18:33;;;;;;;;;;;17.10;99.90;;;;;;4973664;28;20313;-67
2023/05/26 08:21:00;;;;;;;;;;;17.20;99.90;;;;;;4986317;28;19980;-66
2023/05/26 08:23:32;;;;;;;;;;;17.30;99.90;;;;;;4971299;28;19930;-68
2023/05/26 08:26:05;;;;;;;;;;;17.40;99.90;;;;;;4991215;28;19932;-68
2023/05/26 08:28:37;;;;;;;;;;;17.60;99.90;;;;;;4956952;28;19926;-67
2023/05/26 08:31:09;;;;;;;;;;;17.60;99.90;;;;;;4983282;28;20428;-68
2023/05/26 08:33:41;;;;;;;;;;;17.70;99.90;;;;;;4981189;28;19960;-67
2023/05/26 08:36:13;;;;;;;;;;;17.90;99.90;;;;;;4979518;28;19926;-68
2023/05/26 08:38:45;;;;;;;;;;;17.90;99.90;;;;;;4984686;28;20463;-67
2023/05/26 08:41:16;;;;;;;;;;;18.00;99.90;;;;;;4982326;28;20328;-67
2023/05/26 08:43:45;;;;;;;;;;;18.10;99.90;;;;;;4986114;28;19926;-66
2023/05/26 08:46:17;;;;;;;;;;;18.30;99.90;;;;;;4984269;28;19947;-67
2023/05/26 08:48:50;;;;;;;;;;;18.40;99.90;;;;;;4987820;28;19926;-68
2023/05/26 08:51:22;;;;;;;;;;;18.60;99.90;;;;;;4985089;28;19980;-68
2023/05/26 08:53:53;;;;;;;;;;;18.70;99.90;;;;;;4982508;28;19930;-68
2023/05/26 08:56:25;;;;;;;;;;;18.80;99.90;;;;;;4979194;28;19926;-68
2023/05/26 08:59:00;;;;;;;;;;;18.80;99.90;;;;;;4975005;28;19929;-67
2023/05/26 09:01:27;;;;;;;;;;;18.90;99.90;;;;;;4988385;28;20353;-67
2023/05/26 09:03:59;;;;;;;;;;;19.00;99.90;;;;;;4971370;28;19929;-68
2023/05/26 09:06:32;;;;;;;;;;;19.10;99.90;;;;;;4971248;28;19926;-66
2023/05/26 09:09:04;;;;;;;;;;;19.10;99.90;;;;;;4988851;28;19926;-67
2023/05/26 09:11:39;;;;;;;;;;;19.00;99.90;;;;;;4987571;28;19926;-67
2023/05/26 09:14:15;;;;;;;;;;;19.10;99.90;;;;;;4988319;28;19933;-67
2023/05/26 09:16:47;;;;;;;;;;;19.20;99.90;;;;;;4989367;28;20356;-66
2023/05/26 09:19:19;;;;;;;;;;;19.30;99.90;;;;;;4981765;28;20460;-66
2023/05/26 09:21:52;;;;;;;;;;;19.40;99.90;;;;;;4978124;28;19926;-66
2023/05/26 09:24:24;;;;;;;;;;;19.50;99.90;;;;;;4987520;28;19980;-66
2023/05/26 09:26:56;;;;;;;;;;;19.70;99.90;;;;;;4982589;28;19928;-68
2023/05/26 09:29:28;;;;;;;;;;;19.80;99.90;;;;;;4981992;28;19930;-66
2023/05/26 09:31:55;;;;;;;;;;;19.90;99.90;;;;;;4985922;28;20324;-68
2023/05/26 09:34:27;;;;;;;;;;;20.00;99.90;;;;;;4973349;28;19929;-67
2023/05/26 09:36:59;;;;;;;;;;;20.20;99.90;;;;;;4967610;28;20685;-68
2023/05/26 09:39:32;;;;;;;;;;;20.30;99.90;;;;;;4970598;28;19925;-68
2023/05/26 09:42:03;;;;;;;;;;;20.40;99.90;;;;;;4971159;28;19926;-68
2023/05/26 09:44:35;;;;;;;;;;;20.50;99.90;;;;;;4977392;28;19925;-66
2023/05/26 09:47:07;;;;;;;;;;;20.60;99.90;;;;;;4976399;28;19945;-67
2023/05/26 09:49:39;;;;;;;;;;;20.70;99.90;;;;;;4982570;28;19988;-68
2023/05/26 09:52:11;;;;;;;;;;;20.70;99.90;;;;;;4972875;28;20314;-67
2023/05/26 09:54:43;;;;;;;;;;;20.70;99.90;;;;;;4987258;28;20305;-68
2023/05/26 09:57:15;;;;;;;;;;;20.70;99.90;;;;;;4984286;28;19934;-67
2023/05/26 09:59:44;;;;;;;;;;;20.80;99.90;;;;;;4966566;28;20413;-67
2023/05/26 10:02:20;;;;;;;;;;;21.10;99.90;;;;;;4989226;28;19933;-68
2023/05/26 10:04:53;;;;;;;;;;;21.30;99.90;;;;;;4987528;28;19930;-67
2023/05/26 10:07:20;;;;;;;;;;;21.50;99.90;;;;;;4973504;28;20040;-67
2023/05/26 10:09:55;;;;;;;;;;;21.70;99.90;;;;;;4978129;28;19940;-68
2023/05/26 10:12:29;;;;;;;;;;;21.80;99.90;;;;;;4981535;28;19926;-67
2023/05/26 10:15:01;;;;;;;;;;;22.00;99.90;;;;;;4981215;28;19936;-68
2023/05/26 10:17:34;;;;;;;;;;;22.10;99.90;;;;;;4971833;28;19926;-68
2023/05/26 10:20:01;;;;;;;;;;;22.20;99.90;;;;;;4981872;28;19929;-68
2023/05/26 10:22:28;;;;;;;;;;;22.30;99.90;;;;;;4966285;28;19940;-68
2023/05/26 10:25:00;;;;;;;;;;;22.40;99.90;;;;;;4984361;28;19940;-67
2023/05/26 10:27:36;;;;;;;;;;;22.50;99.90;;;;;;4983637;28;20401;-68
2023/05/26 10:30:11;;;;;;;;;;;22.60;99.90;;;;;;4981441;28;19926;-68
2023/05/26 10:32:48;;;;;;;;;;;22.70;99.90;;;;;;4980691;28;20024;-67
2023/05/26 10:35:23;;;;;;;;;;;22.70;99.90;;;;;;4978192;28;19976;-68
2023/05/26 10:37:55;;;;;;;;;;;22.90;99.90;;;;;;4980338;28;19926;-68
2023/05/26 10:40:29;;;;;;;;;;;23.10;99.90;;;;;;4971969;28;19926;-68
2023/05/26 10:43:12;;;;;;;;;;;23.10;99.90;;;;;;4964379;28;19930;-67
2023/05/26 10:45:46;;;;;;;;;;;23.30;99.90;;;;;;4984980;28;19930;-68
2023/05/26 10:48:18;;;;;;;;;;;23.40;99.90;;;;;;4982702;28;19930;-68
2023/05/26 10:50:59;;;;;;;;;;;23.50;99.90;;;;;;4980551;28;19930;-68
2023/05/26 10:53:29;;;;;;;;;;;23.60;99.90;;;;;;4983417;28;20016;-66
2023/05/26 10:56:03;;;;;;;;;;;23.70;99.90;;;;;;4963435;28;19930;-67
2023/05/26 10:58:37;;;;;;;;;;;23.90;99.90;;;;;;4979316;28;20409;-67
2023/05/26 11:01:06;;;;;;;;;;;23.90;99.90;;;;;;4973851;28;19969;-68
2023/05/26 11:03:40;;;;;;;;;;;23.90;99.90;;;;;;4981917;28;20423;-67
2023/05/26 11:06:13;;;;;;;;;;;24.00;99.90;;;;;;4987173;28;19926;-69
2023/05/26 11:08:47;;;;;;;;;;;24.00;99.90;;;;;;4984104;28;19964;-68
2023/05/26 11:11:29;;;;;;;;;;;23.80;99.90;;;;;;4972361;28;19929;-66
2023/05/26 11:14:03;;;;;;;;;;;23.50;99.90;;;;;;4983179;28;20007;-67
2023/05/26 11:16:36;;;;;;;;;;;23.60;99.90;;;;;;4984298;28;20402;-67
2023/05/26 11:19:10;;;;;;;;;;;23.60;99.90;;;;;;4960237;28;19962;-67
2023/05/26 11:21:42;;;;;;;;;;;23.70;99.90;;;;;;4978066;28;20456;-68
2023/05/26 11:24:15;;;;;;;;;;;23.90;99.90;;;;;;4986665;28;19940;-68
2023/05/26 11:26:42;;;;;;;;;;;24.20;99.90;;;;;;4980742;28;20008;-67
2023/05/26 11:29:14;;;;;;;;;;;24.20;99.90;;;;;;4986061;28;19926;-67
2023/05/26 11:31:47;;;;;;;;;;;24.10;99.90;;;;;;4985025;28;20317;-67
2023/05/26 11:34:19;;;;;;;;;;;23.90;99.90;;;;;;4986404;28;19933;-67
2023/05/26 11:36:53;;;;;;;;;;;23.90;99.90;;;;;;4983214;28;19930;-67
2023/05/26 11:39:28;;;;;;;;;;;23.90;99.90;;;;;;4983434;28;20041;-68
2023/05/26 11:42:07;;;;;;;;;;;23.70;99.90;;;;;;4986770;28;19936;-67
2023/05/26 11:44:42;;;;;;;;;;;23.50;99.90;;;;;;4980382;28;19930;-65
2023/05/26 11:47:14;;;;;;;;;;;23.50;99.90;;;;;;4982415;28;19957;-67
2023/05/26 11:49:48;;;;;;;;;;;23.50;99.90;;;;;;4966894;28;19934;-65
2023/05/26 11:52:16;;;;;;;;;;;23.60;99.90;;;;;;4984708;28;20008;-66
2023/05/26 11:54:47;;;;;;;;;;;23.60;99.90;;;;;;4988394;28;19929;-66
2023/05/26 11:57:24;;;;;;;;;;;23.50;99.90;;;;;;4987464;28;20019;-68
2023/05/26 11:59:57;;;;;;;;;;;23.50;99.90;;;;;;4987128;28;19992;-67
2023/05/26 12:02:29;;;;;;;;;;;23.40;99.90;;;;;;4982195;28;19930;-67
2023/05/26 12:04:56;;;;;;;;;;;23.60;99.90;;;;;;4981552;28;19932;-68
2023/05/26 12:07:30;;;;;;;;;;;23.70;99.90;;;;;;4980019;28;19930;-67
2023/05/26 12:10:05;;;;;;;;;;;23.80;99.90;;;;;;4978529;28;19952;-67
2023/05/26 12:12:48;;;;;;;;;;;24.10;99.90;;;;;;4982780;28;19940;-65
2023/05/26 12:15:29;;;;;;;;;;;24.40;99.90;;;;;;4991757;28;20021;-68
2023/05/26 12:17:57;;;;;;;;;;;24.70;99.90;;;;;;4986828;28;19999;-66
2023/05/26 12:20:30;;;;;;;;;;;24.80;99.90;;;;;;4972666;28;19934;-68
2023/05/26 12:23:03;;;;;;;;;;;24.70;99.80;;;;;;4978075;28;19926;-66
2023/05/26 12:25:30;;;;;;;;;;;24.50;99.90;;;;;;4989613;28;19980;-68
2023/05/26 12:27:57;;;;;;;;;;;24.60;99.90;;;;;;4968989;28;19961;-67
2023/05/26 12:30:33;;;;;;;;;;;24.60;99.90;;;;;;4987428;28;19926;-68
2023/05/26 12:33:00;;;;;;;;;;;24.50;99.90;;;;;;4984878;28;19929;-67
2023/05/26 12:35:32;;;;;;;;;;;24.50;99.90;;;;;;4980021;28;19926;-68
2023/05/26 12:38:04;;;;;;;;;;;24.50;99.90;;;;;;4981723;28;19933;-68
2023/05/26 12:40:35;;;;;;;;;;;24.30;99.50;;;;;;4985289;28;19926;-67
2023/05/26 12:43:07;;;;;;;;;;;24.00;99.40;;;;;;4965480;28;19932;-66
2023/05/26 12:45:39;;;;;;;;;;;23.90;99.90;;;;;;4981033;28;19926;-69
2023/05/26 12:48:11;;;;;;;;;;;24.20;99.90;;;;;;4982639;28;20491;-65
2023/05/26 12:50:43;;;;;;;;;;;24.60;99.90;;;;;;4989605;28;19937;-69
2023/05/26 12:53:10;;;;;;;;;;;25.00;99.50;;;;;;5003465;23;19972;-66
2023/05/26 12:55:42;;;;;;;;;;;25.20;99.50;;;;;;4950016;29;20393;-65
2023/05/26 12:58:10;;;;;;;;;;;25.50;99.90;;;;;;4950138;29;19950;-64
2023/05/26 13:00:42;;;;;;;;;;;25.80;98.50;;;;;;4937629;29;19931;-66
2023/05/26 13:03:14;;;;;;;;;;;25.80;97.40;;;;;;4945320;28;19936;-68
2023/05/26 13:05:47;;;;;;;;;;;25.60;96.70;;;;;;4948370;29;19931;-65
2023/05/26 13:08:19;;;;;;;;;;;25.30;96.00;;;;;;4948921;28;19949;-68
2023/05/26 13:10:50;;;;;;;;;;;25.10;96.60;;;;;;4949716;28;19926;-65
2023/05/26 13:13:17;;;;;;;;;;;25.00;96.30;;;;;;4934000;28;19941;-65
2023/05/26 13:15:49;;;;;;;;;;;24.80;96.30;;;;;;4950983;29;19927;-65
2023/05/26 13:18:21;;;;;;;;;;;24.60;96.70;;;;;;4949183;29;19930;-65
2023/05/26 13:20:53;;;;;;;;;;;24.50;96.70;;;;;;4950454;29;19934;-65
2023/05/26 13:23:20;;;;;;;;;;;24.70;98.20;;;;;;4950636;28;19926;-64
2023/05/26 13:25:52;;;;;;;;;;;24.80;97.20;;;;;;4948234;29;19958;-65
2023/05/26 13:28:24;;;;;;;;;;;24.80;95.80;;;;;;4929260;29;19926;-64
2023/05/26 13:30:51;;;;;;;;;;;24.70;96.30;;;;;;4946134;29;20486;-64
2023/05/26 13:33:18;;;;;;;;;;;24.60;97.40;;;;;;4944041;28;19937;-64
2023/05/26 13:35:50;;;;;;;;;;;24.60;97.60;;;;;;4947448;29;20306;-64
2023/05/26 13:38:22;;;;;;;;;;;24.60;97.20;;;;;;4931216;29;19986;-65
2023/05/26 13:40:55;;;;;;;;;;;24.50;96.00;;;;;;4949413;29;19930;-66
2023/05/26 13:43:27;;;;;;;;;;;24.40;95.60;;;;;;4949836;28;19927;-65
2023/05/26 13:45:58;;;;;;;;;;;24.30;96.60;;;;;;4947810;29;19938;-65
2023/05/26 13:48:30;;;;;;;;;;;24.30;96.70;;;;;;4950064;28;19937;-65
2023/05/26 13:51:02;;;;;;;;;;;24.30;97.30;;;;;;4948928;28;19926;-64
2023/05/26 13:53:36;;;;;;;;;;;24.40;96.30;;;;;;4944425;28;20359;-64
2023/05/26 13:56:02;;;;;;;;;;;24.40;95.00;;;;;;4943204;29;19966;-64
2023/05/26 13:58:34;;;;;;;;;;;24.40;95.20;;;;;;4947769;29;19927;-64
2023/05/26 14:01:06;;;;;;;;;;;24.50;95.20;;;;;;4938125;29;20343;-64
2023/05/26 14:03:38;;;;;;;;;;;24.50;93.80;;;;;;4950751;28;19930;-64
2023/05/26 14:06:10;;;;;;;;;;;24.50;95.10;;;;;;4945317;28;20395;-65
2023/05/26 14:08:42;;;;;;;;;;;24.60;95.90;;;;;;4948411;29;19930;-64
2023/05/26 14:11:13;;;;;;;;;;;24.60;95.90;;;;;;4934942;29;19962;-65
2023/05/26 14:13:45;;;;;;;;;;;24.40;95.80;;;;;;4947361;29;19977;-65
2023/05/26 14:16:17;;;;;;;;;;;24.20;96.00;;;;;;4926963;29;20034;-66
2023/05/26 14:18:49;;;;;;;;;;;24.10;96.70;;;;;;4943006;29;19933;-64
2023/05/26 14:21:21;;;;;;;;;;;24.00;96.50;;;;;;4934393;29;19927;-64
2023/05/26 14:23:52;;;;;;;;;;;23.90;96.90;;;;;;4936062;29;19931;-64
2023/05/26 14:26:19;;;;;;;;;;;24.00;97.90;;;;;;4948878;28;20018;-65
2023/05/26 14:28:47;;;;;;;;;;;24.00;97.00;;;;;;4948164;29;19932;-65
2023/05/26 14:31:14;;;;;;;;;;;24.00;96.80;;;;;;4945802;28;20374;-65
2023/05/26 14:33:40;;;;;;;;;;;24.10;96.50;;;;;;4946550;28;20364;-64
2023/05/26 14:36:07;;;;;;;;;;;24.00;95.70;;;;;;4947259;29;19932;-64
2023/05/26 14:38:45;;;;;;;;;;;24.10;97.10;;;;;;4945389;29;19937;-64
2023/05/26 14:41:17;;;;;;;;;;;23.90;96.40;;;;;;4935790;29;20395;-64
2023/05/26 14:43:49;;;;;;;;;;;24.00;97.30;;;;;;4942860;29;19926;-65